Aviation Digital Data Service (ADDS)

Output produced by METARs form (2155 UTC 19 February 2018)
found at http://www.aviationweather.gov/adds/metars/
 
DTTA 192130Z 28004KT 250V310 9999 FEW026 11/07 Q1014 NOSIG
TAF DTTA 191700Z 1918/2018 29007KT 9999 SCT026 
     TEMPO 2000/2006 4000 -RA SCT026 FEW030CB 
     PROB30 
     TEMPO 2015/2018 28017G27KT 4000 TS RA SCT026TCU FEW030CB
       
DTTG 192100Z 12003KT 9999 FEW020 BKN030 11/080QF014 NOSIG
TAF DTTG 192100Z 1922/2007 11004KT 9999 SCT020 SCT030 
     TEMPO 2001/2007 RA SCT020 FEW026CB SCT030
       
DTTF 192100Z 25006KT 9999 FEW026 SCT033 13/06 Q1014 NOSIG
TAF DTTF 192100Z 1922/2007 24005KT 9999 FEW026 SCT033 
     TEMPO 2000/2006 4000 RA FEW026 FEW030CB SCT033
       
DTMB 192130Z 31011KT CAVOK 13/08 Q1014
TAF DTMB 191700Z 1918/2018 31008KT 9999 SCT030 
     TEMPO 2003/2010 4000 -SHRA FEW030CB
       
DTTZ 192100Z 00000KT 8000 SCT026 SCT030 13/11 Q1013 NOSIG
TAF DTTZ 191700Z 1918/2018 04005KT 9999 SCT026 SCT030 
     TEMPO 1918/2014 4000 -SHRA SCT026 SCT030 FEW033CB
       
DTTD 191800Z VRB02KT 8000 SCT026 SCT030 12/08 Q1015
DTTB 192100Z 27004KT 9999 SCT016 08/06 Q1014
DTKA 192100Z 20006KT 8000 SCT020 SCT030 10/08 Q1014 NOSIG
DTTX 192000Z 00000KT 9999 SCT020 BKN026 13/08 Q1014 NOSIG
DTTJ 192130Z 17006KT 9999 FEW020 SCT030 12/07 Q1014 NOSIG
TAF DTTJ 191700Z 1918/2018 20006KT 9999 SCT020 SCT030 
     TEMPO 2003/2018 4000 -SHRA SCT020 SCT030 FEW033CB